sensor_id;sensor_type;location;lat;lon;timestamp;temperature;humidity
68804;SHT31;55787;52.678;13.314;2023-08-17T00:01:34;18.34;89.87
68804;SHT31;55787;52.678;13.314;2023-08-17T00:04:01;18.34;89.73
68804;SHT31;55787;52.678;13.314;2023-08-17T00:06:28;18.27;90.11
68804;SHT31;55787;52.678;13.314;2023-08-17T00:08:55;18.24;90.16
68804;SHT31;55787;52.678;13.314;2023-08-17T00:11:22;18.20;90.11
68804;SHT31;55787;52.678;13.314;2023-08-17T00:13:49;18.18;89.99
68804;SHT31;55787;52.678;13.314;2023-08-17T00:16:15;18.17;89.85
68804;SHT31;55787;52.678;13.314;2023-08-17T00:18:43;18.16;90.09
68804;SHT31;55787;52.678;13.314;2023-08-17T00:21:09;18.17;89.97
68804;SHT31;55787;52.678;13.314;2023-08-17T00:23:36;18.17;89.90
68804;SHT31;55787;52.678;13.314;2023-08-17T00:26:03;18.18;89.79
68804;SHT31;55787;52.678;13.314;2023-08-17T00:28:30;18.23;89.70
68804;SHT31;55787;52.678;13.314;2023-08-17T00:30:56;18.33;89.07
68804;SHT31;55787;52.678;13.314;2023-08-17T00:33:23;18.37;88.93
68804;SHT31;55787;52.678;13.314;2023-08-17T00:35:50;18.31;89.12
68804;SHT31;55787;52.678;13.314;2023-08-17T00:38:16;18.29;89.27
68804;SHT31;55787;52.678;13.314;2023-08-17T00:40:43;18.30;89.19
68804;SHT31;55787;52.678;13.314;2023-08-17T00:43:10;18.27;89.36
68804;SHT31;55787;52.678;13.314;2023-08-17T00:45:36;18.23;89.53
68804;SHT31;55787;52.678;13.314;2023-08-17T00:48:04;18.24;89.39
68804;SHT31;55787;52.678;13.314;2023-08-17T00:50:34;18.26;89.22
68804;SHT31;55787;52.678;13.314;2023-08-17T00:53:02;18.24;89.53
68804;SHT31;55787;52.678;13.314;2023-08-17T00:55:29;18.24;89.39
68804;SHT31;55787;52.678;13.314;2023-08-17T00:57:56;18.18;89.78
68804;SHT31;55787;52.678;13.314;2023-08-17T01:00:24;18.13;89.86
68804;SHT31;55787;52.678;13.314;2023-08-17T01:02:54;18.10;89.86
68804;SHT31;55787;52.678;13.314;2023-08-17T01:05:23;18.07;89.89
68804;SHT31;55787;52.678;13.314;2023-08-17T01:07:49;18.06;89.87
68804;SHT31;55787;52.678;13.314;2023-08-17T01:10:16;18.09;89.67
68804;SHT31;55787;52.678;13.314;2023-08-17T01:12:56;18.01;89.98
68804;SHT31;55787;52.678;13.314;2023-08-17T01:15:30;17.99;90.12
68804;SHT31;55787;52.678;13.314;2023-08-17T01:18:17;17.93;90.37
68804;SHT31;55787;52.678;13.314;2023-08-17T01:20:46;17.92;90.36
68804;SHT31;55787;52.678;13.314;2023-08-17T01:23:12;17.93;90.27
68804;SHT31;55787;52.678;13.314;2023-08-17T01:25:39;17.87;90.37
68804;SHT31;55787;52.678;13.314;2023-08-17T01:28:06;17.87;90.29
68804;SHT31;55787;52.678;13.314;2023-08-17T01:30:56;17.94;90.01
68804;SHT31;55787;52.678;13.314;2023-08-17T01:33:52;17.97;89.90
68804;SHT31;55787;52.678;13.314;2023-08-17T01:36:25;17.96;89.81
68804;SHT31;55787;52.678;13.314;2023-08-17T01:38:54;17.90;89.98
68804;SHT31;55787;52.678;13.314;2023-08-17T01:41:23;17.85;90.38
68804;SHT31;55787;52.678;13.314;2023-08-17T01:43:51;17.87;89.96
68804;SHT31;55787;52.678;13.314;2023-08-17T01:46:18;17.86;89.75
68804;SHT31;55787;52.678;13.314;2023-08-17T01:48:45;17.92;89.23
68804;SHT31;55787;52.678;13.314;2023-08-17T01:51:17;17.87;89.66
68804;SHT31;55787;52.678;13.314;2023-08-17T01:53:48;17.86;89.24
68804;SHT31;55787;52.678;13.314;2023-08-17T01:56:15;17.82;88.91
68804;SHT31;55787;52.678;13.314;2023-08-17T01:58:41;17.75;89.39
68804;SHT31;55787;52.678;13.314;2023-08-17T02:01:08;17.65;89.62
68804;SHT31;55787;52.678;13.314;2023-08-17T02:03:35;17.62;89.36
68804;SHT31;55787;52.678;13.314;2023-08-17T02:06:02;17.68;88.67
68804;SHT31;55787;52.678;13.314;2023-08-17T02:08:29;17.78;88.03
68804;SHT31;55787;52.678;13.314;2023-08-17T02:10:56;17.85;87.19
68804;SHT31;55787;52.678;13.314;2023-08-17T02:13:23;17.80;87.21
68804;SHT31;55787;52.678;13.314;2023-08-17T02:15:51;17.78;87.39
68804;SHT31;55787;52.678;13.314;2023-08-17T02:18:18;17.83;86.62
68804;SHT31;55787;52.678;13.314;2023-08-17T02:20:45;17.86;86.47
68804;SHT31;55787;52.678;13.314;2023-08-17T02:23:12;17.79;86.82
68804;SHT31;55787;52.678;13.314;2023-08-17T02:25:40;17.71;87.19
68804;SHT31;55787;52.678;13.314;2023-08-17T02:28:07;17.68;86.95
68804;SHT31;55787;52.678;13.314;2023-08-17T02:30:33;17.66;86.81
68804;SHT31;55787;52.678;13.314;2023-08-17T02:33:00;17.65;86.46
68804;SHT31;55787;52.678;13.314;2023-08-17T02:35:27;17.66;86.03
68804;SHT31;55787;52.678;13.314;2023-08-17T02:37:54;17.62;86.16
68804;SHT31;55787;52.678;13.314;2023-08-17T02:40:21;17.63;85.98
68804;SHT31;55787;52.678;13.314;2023-08-17T02:42:47;17.53;86.21
68804;SHT31;55787;52.678;13.314;2023-08-17T02:45:14;17.51;86.57
68804;SHT31;55787;52.678;13.314;2023-08-17T02:47:41;17.48;85.73
68804;SHT31;55787;52.678;13.314;2023-08-17T02:50:08;17.51;85.49
68804;SHT31;55787;52.678;13.314;2023-08-17T02:52:35;17.59;84.71
68804;SHT31;55787;52.678;13.314;2023-08-17T02:55:02;17.55;84.88
68804;SHT31;55787;52.678;13.314;2023-08-17T02:57:28;17.55;85.20
68804;SHT31;55787;52.678;13.314;2023-08-17T02:59:55;17.53;85.07
68804;SHT31;55787;52.678;13.314;2023-08-17T03:02:21;17.46;85.26
68804;SHT31;55787;52.678;13.314;2023-08-17T03:04:49;17.51;84.71
68804;SHT31;55787;52.678;13.314;2023-08-17T03:07:16;17.49;85.27
68804;SHT31;55787;52.678;13.314;2023-08-17T03:09:42;17.39;84.81
68804;SHT31;55787;52.678;13.314;2023-08-17T03:12:09;17.42;84.46
68804;SHT31;55787;52.678;13.314;2023-08-17T03:14:36;17.43;84.33
68804;SHT31;55787;52.678;13.314;2023-08-17T03:17:03;17.41;84.27
68804;SHT31;55787;52.678;13.314;2023-08-17T03:19:30;17.41;83.83
68804;SHT31;55787;52.678;13.314;2023-08-17T03:21:56;17.39;83.77
68804;SHT31;55787;52.678;13.314;2023-08-17T03:24:23;17.38;83.25
68804;SHT31;55787;52.678;13.314;2023-08-17T03:26:50;17.38;83.43
68804;SHT31;55787;52.678;13.314;2023-08-17T03:29:16;17.30;83.21
68804;SHT31;55787;52.678;13.314;2023-08-17T03:31:43;17.22;84.41
68804;SHT31;55787;52.678;13.314;2023-08-17T03:34:10;17.12;83.93
68804;SHT31;55787;52.678;13.314;2023-08-17T03:36:37;17.15;83.71
68804;SHT31;55787;52.678;13.314;2023-08-17T03:39:03;17.07;83.58
68804;SHT31;55787;52.678;13.314;2023-08-17T03:41:30;17.07;83.53
68804;SHT31;55787;52.678;13.314;2023-08-17T03:43:57;17.10;83.34
68804;SHT31;55787;52.678;13.314;2023-08-17T03:46:23;17.12;83.14
68804;SHT31;55787;52.678;13.314;2023-08-17T03:48:50;17.15;83.39
68804;SHT31;55787;52.678;13.314;2023-08-17T03:51:17;17.21;83.18
68804;SHT31;55787;52.678;13.314;2023-08-17T03:53:44;17.28;83.12
68804;SHT31;55787;52.678;13.314;2023-08-17T03:56:11;17.25;82.48
68804;SHT31;55787;52.678;13.314;2023-08-17T03:58:37;17.28;82.66
68804;SHT31;55787;52.678;13.314;2023-08-17T04:01:04;17.28;82.54
68804;SHT31;55787;52.678;13.314;2023-08-17T04:03:33;17.28;83.65
68804;SHT31;55787;52.678;13.314;2023-08-17T04:06:07;17.22;82.59
68804;SHT31;55787;52.678;13.314;2023-08-17T04:08:37;17.27;82.54
68804;SHT31;55787;52.678;13.314;2023-08-17T04:11:04;17.24;82.60
68804;SHT31;55787;52.678;13.314;2023-08-17T04:13:31;17.22;82.22
68804;SHT31;55787;52.678;13.314;2023-08-17T04:15:58;17.21;82.47
68804;SHT31;55787;52.678;13.314;2023-08-17T04:18:25;17.18;83.81
68804;SHT31;55787;52.678;13.314;2023-08-17T04:20:52;17.17;82.57
68804;SHT31;55787;52.678;13.314;2023-08-17T04:23:21;17.15;82.74
68804;SHT31;55787;52.678;13.314;2023-08-17T04:25:48;17.18;82.75
68804;SHT31;55787;52.678;13.314;2023-08-17T04:28:15;17.20;82.50
68804;SHT31;55787;52.678;13.314;2023-08-17T04:30:42;17.22;83.12
68804;SHT31;55787;52.678;13.314;2023-08-17T04:33:09;17.24;82.92
68804;SHT31;55787;52.678;13.314;2023-08-17T04:35:35;17.24;82.59
68804;SHT31;55787;52.678;13.314;2023-08-17T04:38:03;17.24;82.82
68804;SHT31;55787;52.678;13.314;2023-08-17T04:40:29;17.31;82.07
68804;SHT31;55787;52.678;13.314;2023-08-17T04:42:56;17.34;82.06
68804;SHT31;55787;52.678;13.314;2023-08-17T04:45:23;17.41;81.17
68804;SHT31;55787;52.678;13.314;2023-08-17T04:47:50;17.42;82.09
68804;SHT31;55787;52.678;13.314;2023-08-17T04:50:16;17.51;80.74
68804;SHT31;55787;52.678;13.314;2023-08-17T04:52:44;17.53;80.91
68804;SHT31;55787;52.678;13.314;2023-08-17T04:55:12;17.58;81.30
68804;SHT31;55787;52.678;13.314;2023-08-17T04:57:39;17.61;80.50
68804;SHT31;55787;52.678;13.314;2023-08-17T05:00:06;17.65;81.16
68804;SHT31;55787;52.678;13.314;2023-08-17T05:02:37;17.68;80.44
68804;SHT31;55787;52.678;13.314;2023-08-17T05:05:04;17.73;80.05
68804;SHT31;55787;52.678;13.314;2023-08-17T05:07:31;17.75;80.50
68804;SHT31;55787;52.678;13.314;2023-08-17T05:09:58;17.80;80.10
68804;SHT31;55787;52.678;13.314;2023-08-17T05:12:25;17.82;80.24
68804;SHT31;55787;52.678;13.314;2023-08-17T05:14:51;17.83;80.64
68804;SHT31;55787;52.678;13.314;2023-08-17T05:17:18;17.87;80.33
68804;SHT31;55787;52.678;13.314;2023-08-17T05:19:45;17.89;80.19
68804;SHT31;55787;52.678;13.314;2023-08-17T05:22:12;17.93;79.76
68804;SHT31;55787;52.678;13.314;2023-08-17T05:24:39;17.99;79.81
68804;SHT31;55787;52.678;13.314;2023-08-17T05:27:06;17.99;80.43
68804;SHT31;55787;52.678;13.314;2023-08-17T05:29:33;18.00;81.05
68804;SHT31;55787;52.678;13.314;2023-08-17T05:32:00;18.00;81.01
68804;SHT31;55787;52.678;13.314;2023-08-17T05:34:27;18.01;80.15
68804;SHT31;55787;52.678;13.314;2023-08-17T05:36:53;18.11;79.24
68804;SHT31;55787;52.678;13.314;2023-08-17T05:39:20;18.13;80.20
68804;SHT31;55787;52.678;13.314;2023-08-17T05:41:47;18.11;80.90
68804;SHT31;55787;52.678;13.314;2023-08-17T05:44:13;18.17;79.75
68804;SHT31;55787;52.678;13.314;2023-08-17T05:46:41;18.21;79.16
68804;SHT31;55787;52.678;13.314;2023-08-17T05:49:08;18.33;78.56
68804;SHT31;55787;52.678;13.314;2023-08-17T05:51:35;18.36;80.04
68804;SHT31;55787;52.678;13.314;2023-08-17T05:54:01;18.34;81.38
68804;SHT31;55787;52.678;13.314;2023-08-17T05:56:28;18.52;78.14
68804;SHT31;55787;52.678;13.314;2023-08-17T05:58:55;18.48;79.97
68804;SHT31;55787;52.678;13.314;2023-08-17T06:01:21;18.52;79.27
68804;SHT31;55787;52.678;13.314;2023-08-17T06:03:48;18.58;80.33
68804;SHT31;55787;52.678;13.314;2023-08-17T06:06:16;18.71;81.21
68804;SHT31;55787;52.678;13.314;2023-08-17T06:08:42;18.87;81.38
68804;SHT31;55787;52.678;13.314;2023-08-17T06:11:09;18.91;81.59
68804;SHT31;55787;52.678;13.314;2023-08-17T06:13:36;18.98;78.01
68804;SHT31;55787;52.678;13.314;2023-08-17T06:16:02;19.01;78.07
68804;SHT31;55787;52.678;13.314;2023-08-17T06:18:30;18.95;78.58
68804;SHT31;55787;52.678;13.314;2023-08-17T06:20:57;18.84;78.43
68804;SHT31;55787;52.678;13.314;2023-08-17T06:23:24;18.76;78.64
68804;SHT31;55787;52.678;13.314;2023-08-17T06:25:50;18.81;78.90
68804;SHT31;55787;52.678;13.314;2023-08-17T06:28:17;18.88;80.85
68804;SHT31;55787;52.678;13.314;2023-08-17T06:30:44;18.94;80.44
68804;SHT31;55787;52.678;13.314;2023-08-17T06:33:10;19.02;80.19
68804;SHT31;55787;52.678;13.314;2023-08-17T06:35:37;19.20;82.37
68804;SHT31;55787;52.678;13.314;2023-08-17T06:38:04;19.40;79.61
68804;SHT31;55787;52.678;13.314;2023-08-17T06:40:31;19.37;76.97
68804;SHT31;55787;52.678;13.314;2023-08-17T06:42:57;19.40;77.45
68804;SHT31;55787;52.678;13.314;2023-08-17T06:45:24;19.71;76.89
68804;SHT31;55787;52.678;13.314;2023-08-17T06:47:51;19.91;75.94
68804;SHT31;55787;52.678;13.314;2023-08-17T06:50:17;20.15;75.72
68804;SHT31;55787;52.678;13.314;2023-08-17T06:52:44;20.79;72.09
68804;SHT31;55787;52.678;13.314;2023-08-17T06:55:11;21.88;70.24
68804;SHT31;55787;52.678;13.314;2023-08-17T06:57:38;22.87;68.08
68804;SHT31;55787;52.678;13.314;2023-08-17T07:00:05;23.90;63.52
68804;SHT31;55787;52.678;13.314;2023-08-17T07:02:33;24.13;65.72
68804;SHT31;55787;52.678;13.314;2023-08-17T07:05:16;23.81;65.84
68804;SHT31;55787;52.678;13.314;2023-08-17T07:07:44;23.20;64.96
68804;SHT31;55787;52.678;13.314;2023-08-17T07:10:11;22.67;68.57
68804;SHT31;55787;52.678;13.314;2023-08-17T07:12:39;22.17;73.44
68804;SHT31;55787;52.678;13.314;2023-08-17T07:15:07;21.95;71.46
68804;SHT31;55787;52.678;13.314;2023-08-17T07:17:34;21.61;71.47
68804;SHT31;55787;52.678;13.314;2023-08-17T07:20:01;21.54;70.51
68804;SHT31;55787;52.678;13.314;2023-08-17T07:22:30;21.38;73.06
68804;SHT31;55787;52.678;13.314;2023-08-17T07:24:57;21.34;72.27
68804;SHT31;55787;52.678;13.314;2023-08-17T07:27:24;21.30;72.53
68804;SHT31;55787;52.678;13.314;2023-08-17T07:29:51;21.27;76.06
68804;SHT31;55787;52.678;13.314;2023-08-17T07:32:18;21.35;74.00
68804;SHT31;55787;52.678;13.314;2023-08-17T07:34:45;21.51;73.13
68804;SHT31;55787;52.678;13.314;2023-08-17T07:37:11;21.69;73.66
68804;SHT31;55787;52.678;13.314;2023-08-17T07:39:41;22.02;73.13
68804;SHT31;55787;52.678;13.314;2023-08-17T07:42:08;22.29;71.81
68804;SHT31;55787;52.678;13.314;2023-08-17T07:44:35;22.37;69.39
68804;SHT31;55787;52.678;13.314;2023-08-17T07:47:01;22.35;70.12
68804;SHT31;55787;52.678;13.314;2023-08-17T07:49:28;22.12;70.99
68804;SHT31;55787;52.678;13.314;2023-08-17T07:51:58;22.08;72.21
68804;SHT31;55787;52.678;13.314;2023-08-17T07:54:25;21.92;73.40
68804;SHT31;55787;52.678;13.314;2023-08-17T07:56:52;21.90;71.74
68804;SHT31;55787;52.678;13.314;2023-08-17T07:59:19;21.89;72.07
68804;SHT31;55787;52.678;13.314;2023-08-17T08:01:45;21.79;71.29
68804;SHT31;55787;52.678;13.314;2023-08-17T08:04:12;21.66;73.19
68804;SHT31;55787;52.678;13.314;2023-08-17T08:06:39;21.69;73.13
68804;SHT31;55787;52.678;13.314;2023-08-17T08:09:06;21.65;73.28
68804;SHT31;55787;52.678;13.314;2023-08-17T08:11:33;21.62;72.42
68804;SHT31;55787;52.678;13.314;2023-08-17T08:14:00;21.68;73.88
68804;SHT31;55787;52.678;13.314;2023-08-17T08:16:27;21.82;73.19
68804;SHT31;55787;52.678;13.314;2023-08-17T08:18:57;22.05;71.45
68804;SHT31;55787;52.678;13.314;2023-08-17T08:21:23;22.41;70.37
68804;SHT31;55787;52.678;13.314;2023-08-17T08:23:50;22.63;70.78
68804;SHT31;55787;52.678;13.314;2023-08-17T08:26:17;22.61;73.01
68804;SHT31;55787;52.678;13.314;2023-08-17T08:28:43;22.78;70.85
68804;SHT31;55787;52.678;13.314;2023-08-17T08:31:10;22.78;70.46
68804;SHT31;55787;52.678;13.314;2023-08-17T08:33:37;22.94;70.01
68804;SHT31;55787;52.678;13.314;2023-08-17T08:36:04;23.30;69.44
68804;SHT31;55787;52.678;13.314;2023-08-17T08:38:32;23.55;69.85
68804;SHT31;55787;52.678;13.314;2023-08-17T08:40:59;23.83;69.09
68804;SHT31;55787;52.678;13.314;2023-08-17T08:43:25;24.13;68.75
68804;SHT31;55787;52.678;13.314;2023-08-17T08:45:54;24.28;68.05
68804;SHT31;55787;52.678;13.314;2023-08-17T08:48:22;24.42;67.10
68804;SHT31;55787;52.678;13.314;2023-08-17T08:50:54;24.39;67.54
68804;SHT31;55787;52.678;13.314;2023-08-17T08:53:30;24.25;68.50
68804;SHT31;55787;52.678;13.314;2023-08-17T08:56:03;24.03;68.22
68804;SHT31;55787;52.678;13.314;2023-08-17T08:58:31;23.94;68.28
68804;SHT31;55787;52.678;13.314;2023-08-17T09:00:57;23.80;69.41
68804;SHT31;55787;52.678;13.314;2023-08-17T09:03:25;23.60;69.79
68804;SHT31;55787;52.678;13.314;2023-08-17T09:05:52;23.48;70.58
68804;SHT31;55787;52.678;13.314;2023-08-17T09:08:27;23.42;70.54
68804;SHT31;55787;52.678;13.314;2023-08-17T09:10:54;23.36;70.09
68804;SHT31;55787;52.678;13.314;2023-08-17T09:13:21;23.28;70.57
68804;SHT31;55787;52.678;13.314;2023-08-17T09:15:47;23.28;70.47
68804;SHT31;55787;52.678;13.314;2023-08-17T09:18:15;23.38;70.72
68804;SHT31;55787;52.678;13.314;2023-08-17T09:20:44;23.22;71.82
68804;SHT31;55787;52.678;13.314;2023-08-17T09:23:16;23.39;71.13
68804;SHT31;55787;52.678;13.314;2023-08-17T09:25:44;23.52;70.10
68804;SHT31;55787;52.678;13.314;2023-08-17T09:28:16;23.46;71.28
68804;SHT31;55787;52.678;13.314;2023-08-17T09:33:24;23.60;70.63
68804;SHT31;55787;52.678;13.314;2023-08-17T09:35:53;23.71;70.84
68804;SHT31;55787;52.678;13.314;2023-08-17T09:38:25;24.00;71.20
68804;SHT31;55787;52.678;13.314;2023-08-17T09:40:51;24.27;71.64
68804;SHT31;55787;52.678;13.314;2023-08-17T09:43:19;24.69;67.89
68804;SHT31;55787;52.678;13.314;2023-08-17T09:45:47;24.75;67.06
68804;SHT31;55787;52.678;13.314;2023-08-17T09:48:17;24.99;66.39
68804;SHT31;55787;52.678;13.314;2023-08-17T09:50:45;25.38;68.28
68804;SHT31;55787;52.678;13.314;2023-08-17T09:53:17;26.21;64.78
68804;SHT31;55787;52.678;13.314;2023-08-17T09:55:45;26.80;62.19
68804;SHT31;55787;52.678;13.314;2023-08-17T09:58:12;27.12;61.40
68804;SHT31;55787;52.678;13.314;2023-08-17T10:00:49;27.07;62.24
68804;SHT31;55787;52.678;13.314;2023-08-17T10:03:19;27.10;61.72
68804;SHT31;55787;52.678;13.314;2023-08-17T10:06:10;26.95;62.46
68804;SHT31;55787;52.678;13.314;2023-08-17T10:08:43;26.40;65.19
68804;SHT31;55787;52.678;13.314;2023-08-17T10:11:12;26.29;62.61
68804;SHT31;55787;52.678;13.314;2023-08-17T10:14:01;25.78;65.10
68804;SHT31;55787;52.678;13.314;2023-08-17T10:16:50;25.41;65.51
68804;SHT31;55787;52.678;13.314;2023-08-17T10:20:05;25.23;66.38
68804;SHT31;55787;52.678;13.314;2023-08-17T10:22:39;24.90;66.57
68804;SHT31;55787;52.678;13.314;2023-08-17T10:25:09;24.75;68.36
68804;SHT31;55787;52.678;13.314;2023-08-17T10:27:38;24.61;68.83
68804;SHT31;55787;52.678;13.314;2023-08-17T10:30:08;24.54;68.71
68804;SHT31;55787;52.678;13.314;2023-08-17T10:32:35;24.20;69.98
68804;SHT31;55787;52.678;13.314;2023-08-17T10:35:03;24.24;69.43
68804;SHT31;55787;52.678;13.314;2023-08-17T10:37:31;24.27;69.33
68804;SHT31;55787;52.678;13.314;2023-08-17T10:39:58;24.25;70.74
68804;SHT31;55787;52.678;13.314;2023-08-17T10:42:35;24.34;68.44
68804;SHT31;55787;52.678;13.314;2023-08-17T10:45:29;24.44;71.57
68804;SHT31;55787;52.678;13.314;2023-08-17T10:50:38;24.64;68.41
68804;SHT31;55787;52.678;13.314;2023-08-17T10:53:11;24.57;69.95
68804;SHT31;55787;52.678;13.314;2023-08-17T10:55:44;25.10;68.20
68804;SHT31;55787;52.678;13.314;2023-08-17T10:58:11;27.03;63.59
68804;SHT31;55787;52.678;13.314;2023-08-17T11:00:42;29.27;61.41
68804;SHT31;55787;52.678;13.314;2023-08-17T11:03:18;30.79;53.03
68804;SHT31;55787;52.678;13.314;2023-08-17T11:05:48;31.19;53.50
68804;SHT31;55787;52.678;13.314;2023-08-17T11:08:20;31.82;52.18
68804;SHT31;55787;52.678;13.314;2023-08-17T11:11:01;32.12;50.18
68804;SHT31;55787;52.678;13.314;2023-08-17T11:13:30;32.91;48.33
68804;SHT31;55787;52.678;13.314;2023-08-17T11:15:58;33.93;46.65
68804;SHT31;55787;52.678;13.314;2023-08-17T11:18:30;34.21;46.41
68804;SHT31;55787;52.678;13.314;2023-08-17T11:20:57;34.19;44.98
68804;SHT31;55787;52.678;13.314;2023-08-17T11:23:24;34.07;44.09
68804;SHT31;55787;52.678;13.314;2023-08-17T11:25:52;33.21;45.82
68804;SHT31;55787;52.678;13.314;2023-08-17T11:28:19;33.03;46.23
68804;SHT31;55787;52.678;13.314;2023-08-17T11:30:56;33.03;48.33
68804;SHT31;55787;52.678;13.314;2023-08-17T11:33:23;34.10;47.10
68804;SHT31;55787;52.678;13.314;2023-08-17T11:35:50;34.75;42.84
68804;SHT31;55787;52.678;13.314;2023-08-17T11:38:17;34.44;43.21
68804;SHT31;55787;52.678;13.314;2023-08-17T11:40:43;33.08;45.41
68804;SHT31;55787;52.678;13.314;2023-08-17T11:43:10;32.64;46.90
68804;SHT31;55787;52.678;13.314;2023-08-17T11:45:39;32.60;48.06
68804;SHT31;55787;52.678;13.314;2023-08-17T11:48:06;33.34;46.36
68804;SHT31;55787;52.678;13.314;2023-08-17T11:50:34;33.18;46.03
68804;SHT31;55787;52.678;13.314;2023-08-17T11:53:05;33.85;45.16
68804;SHT31;55787;52.678;13.314;2023-08-17T11:55:32;34.71;46.19
68804;SHT31;55787;52.678;13.314;2023-08-17T11:57:59;35.46;44.15
68804;SHT31;55787;52.678;13.314;2023-08-17T12:00:25;35.47;42.62
68804;SHT31;55787;52.678;13.314;2023-08-17T12:02:53;35.62;44.10
68804;SHT31;55787;52.678;13.314;2023-08-17T12:05:23;36.03;42.56
68804;SHT31;55787;52.678;13.314;2023-08-17T12:07:52;35.96;42.95
68804;SHT31;55787;52.678;13.314;2023-08-17T12:10:19;36.28;41.92
68804;SHT31;55787;52.678;13.314;2023-08-17T12:12:47;36.05;43.65
68804;SHT31;55787;52.678;13.314;2023-08-17T12:15:17;35.77;43.62
68804;SHT31;55787;52.678;13.314;2023-08-17T12:17:45;35.52;42.53
68804;SHT31;55787;52.678;13.314;2023-08-17T12:20:17;34.51;46.71
68804;SHT31;55787;52.678;13.314;2023-08-17T12:22:45;34.40;45.34
68804;SHT31;55787;52.678;13.314;2023-08-17T12:25:11;34.20;45.59
68804;SHT31;55787;52.678;13.314;2023-08-17T12:27:39;34.03;46.00
68804;SHT31;55787;52.678;13.314;2023-08-17T12:30:29;33.04;47.69
68804;SHT31;55787;52.678;13.314;2023-08-17T12:32:58;31.55;52.33
68804;SHT31;55787;52.678;13.314;2023-08-17T12:35:26;30.92;53.27
68804;SHT31;55787;52.678;13.314;2023-08-17T12:37:53;30.76;53.40
68804;SHT31;55787;52.678;13.314;2023-08-17T12:40:21;30.53;53.23
68804;SHT31;55787;52.678;13.314;2023-08-17T12:42:49;31.14;53.09
68804;SHT31;55787;52.678;13.314;2023-08-17T12:45:16;30.94;54.55
68804;SHT31;55787;52.678;13.314;2023-08-17T12:47:43;30.94;54.04
68804;SHT31;55787;52.678;13.314;2023-08-17T12:50:10;32.23;51.65
68804;SHT31;55787;52.678;13.314;2023-08-17T12:52:37;32.29;51.66
68804;SHT31;55787;52.678;13.314;2023-08-17T12:55:04;32.36;51.35
68804;SHT31;55787;52.678;13.314;2023-08-17T12:57:31;31.61;52.05
68804;SHT31;55787;52.678;13.314;2023-08-17T12:59:57;30.49;56.17
68804;SHT31;55787;52.678;13.314;2023-08-17T13:02:24;30.11;55.73
68804;SHT31;55787;52.678;13.314;2023-08-17T13:04:51;29.34;58.10
68804;SHT31;55787;52.678;13.314;2023-08-17T13:07:18;29.34;58.29
68804;SHT31;55787;52.678;13.314;2023-08-17T13:09:45;29.73;57.75
68804;SHT31;55787;52.678;13.314;2023-08-17T13:12:13;30.22;56.70
68804;SHT31;55787;52.678;13.314;2023-08-17T13:14:40;30.73;58.33
68804;SHT31;55787;52.678;13.314;2023-08-17T13:17:07;30.92;56.89
68804;SHT31;55787;52.678;13.314;2023-08-17T13:19:33;30.73;56.39
68804;SHT31;55787;52.678;13.314;2023-08-17T13:22:00;30.27;59.08
68804;SHT31;55787;52.678;13.314;2023-08-17T13:24:29;30.56;56.84
68804;SHT31;55787;52.678;13.314;2023-08-17T13:26:55;30.27;58.44
68804;SHT31;55787;52.678;13.314;2023-08-17T13:29:23;29.80;59.03
68804;SHT31;55787;52.678;13.314;2023-08-17T13:31:50;29.62;60.13
68804;SHT31;55787;52.678;13.314;2023-08-17T13:34:17;29.27;59.44
68804;SHT31;55787;52.678;13.314;2023-08-17T13:36:44;29.62;58.36
68804;SHT31;55787;52.678;13.314;2023-08-17T13:39:10;29.90;58.59
68804;SHT31;55787;52.678;13.314;2023-08-17T13:41:37;30.46;57.03
68804;SHT31;55787;52.678;13.314;2023-08-17T13:44:04;31.19;59.49
68804;SHT31;55787;52.678;13.314;2023-08-17T13:46:31;31.34;55.97
68804;SHT31;55787;52.678;13.314;2023-08-17T13:48:58;31.02;57.05
68804;SHT31;55787;52.678;13.314;2023-08-17T13:51:25;30.56;55.88
68804;SHT31;55787;52.678;13.314;2023-08-17T13:53:52;30.52;56.16
68804;SHT31;55787;52.678;13.314;2023-08-17T13:56:18;30.42;58.74
68804;SHT31;55787;52.678;13.314;2023-08-17T13:58:46;30.73;57.57
68804;SHT31;55787;52.678;13.314;2023-08-17T14:01:13;30.52;57.17
68804;SHT31;55787;52.678;13.314;2023-08-17T14:03:40;30.32;56.48
68804;SHT31;55787;52.678;13.314;2023-08-17T14:06:09;30.43;56.67
68804;SHT31;55787;52.678;13.314;2023-08-17T14:08:36;30.52;57.53
68804;SHT31;55787;52.678;13.314;2023-08-17T14:11:03;30.45;53.49
68804;SHT31;55787;52.678;13.314;2023-08-17T14:13:30;30.38;55.05
68804;SHT31;55787;52.678;13.314;2023-08-17T14:15:56;30.17;59.53
68804;SHT31;55787;52.678;13.314;2023-08-17T14:18:25;30.18;55.31
68804;SHT31;55787;52.678;13.314;2023-08-17T14:20:51;30.00;55.44
68804;SHT31;55787;52.678;13.314;2023-08-17T14:23:18;29.74;56.57
68804;SHT31;55787;52.678;13.314;2023-08-17T14:25:45;29.59;58.00
68804;SHT31;55787;52.678;13.314;2023-08-17T14:28:12;29.16;59.24
68804;SHT31;55787;52.678;13.314;2023-08-17T14:30:39;29.13;59.62
68804;SHT31;55787;52.678;13.314;2023-08-17T14:33:05;29.06;60.15
68804;SHT31;55787;52.678;13.314;2023-08-17T14:35:32;29.18;58.43
68804;SHT31;55787;52.678;13.314;2023-08-17T14:37:59;29.26;57.45
68804;SHT31;55787;52.678;13.314;2023-08-17T14:40:27;29.23;57.66
68804;SHT31;55787;52.678;13.314;2023-08-17T14:42:54;29.40;58.22
68804;SHT31;55787;52.678;13.314;2023-08-17T14:45:21;29.32;57.02
68804;SHT31;55787;52.678;13.314;2023-08-17T14:47:48;29.25;59.18
68804;SHT31;55787;52.678;13.314;2023-08-17T14:50:15;29.13;56.79
68804;SHT31;55787;52.678;13.314;2023-08-17T14:52:41;28.87;57.71
68804;SHT31;55787;52.678;13.314;2023-08-17T14:55:08;28.75;59.01
68804;SHT31;55787;52.678;13.314;2023-08-17T14:57:35;28.87;58.52
68804;SHT31;55787;52.678;13.314;2023-08-17T15:00:02;28.82;57.09
68804;SHT31;55787;52.678;13.314;2023-08-17T15:02:30;28.68;57.83
68804;SHT31;55787;52.678;13.314;2023-08-17T15:04:57;28.47;58.20
68804;SHT31;55787;52.678;13.314;2023-08-17T15:07:24;28.43;58.63
68804;SHT31;55787;52.678;13.314;2023-08-17T15:09:51;28.43;58.48
68804;SHT31;55787;52.678;13.314;2023-08-17T15:12:19;28.55;59.64
68804;SHT31;55787;52.678;13.314;2023-08-17T15:14:49;28.64;60.58
68804;SHT31;55787;52.678;13.314;2023-08-17T15:17:16;28.85;59.35
68804;SHT31;55787;52.678;13.314;2023-08-17T15:19:42;28.85;58.18
68804;SHT31;55787;52.678;13.314;2023-08-17T15:22:09;28.64;58.08
68804;SHT31;55787;52.678;13.314;2023-08-17T15:24:41;28.40;60.39
68804;SHT31;55787;52.678;13.314;2023-08-17T15:27:09;28.23;60.38